Nearby METAR Reports

 

KTEB - Teterboro, New Jersey, USA
Distance from station: ENE 2mi, 4km
Updated: 09/18/2018 2:05pm
Rain, Mist, Overcast
Rain, Mist, Overcast
 Wind from NNE
Wind: NNE 7 mph , 11 km/h
Temperature: 72°F , 22°C
Dew Point: 70°F , 21°C
Humidity: 94%
Barometer: 29.74 inHg , 1007.1 hPa
Summary: Rain, Mist
Clouds: Overcast
Visibility: 2 miles , 3 km
Cloud details: Few Clouds 700 ft
Mostly cloudy 2300 ft
Overcast 3000 ft
2018/09/18 18:05 KTEB 181805Z 03006KT 2SM R06/4500VP6000FT RA BR FEW007 BKN023 OVC030 22/21 A2974 RMK AO2 P0022 T02170211
KNYC - Nyc/Central Park, New York, USA
Distance from station: SE 8mi, 13km
Updated: 09/18/2018 2:09pm
Light rain, Mist, Overcast
Light rain, Mist, Overcast
 Wind from N
Wind: N 7 mph , 11 km/h
Temperature: 73°F , 23°C
Dew Point: 72°F , 22°C
Humidity: 94%
Barometer: 29.76 inHg , 1007.8 hPa
Summary: Light rain, Mist
Clouds: Overcast
Visibility: 3 miles , 5 km
Cloud details: Few Clouds 800 ft
Mostly cloudy 2100 ft
Overcast 3700 ft
2018/09/18 18:09 KNYC 181809Z AUTO 01006KT 3SM -RA BR FEW008 BKN021 OVC037 23/22 A2976 RMK AO2 P0004 T02280217 $
 
KCDW - Caldwell, New Jersey, USA
Distance from station: WNW 10mi, 17km
Updated: 09/18/2018 1:53pm
Nearby thunderstorm, Overcast
Nearby thunderstorm, Overcast
 Wind from NE
Wind: NE 5 mph , 7 km/h
Temperature: 72°F , 22°C
Dew Point: 70°F , 21°C
Humidity: 94%
Barometer: 29.76 inHg , 1007.8 hPa
Summary: Nearby Thunderstorm
Clouds: Overcast
Visibility: 10 miles , 16 km
Cloud details: Few Clouds 1200 ft
Overcast 2700 ft
2018/09/18 17:53 KCDW 181753Z 04004KT 10SM VCTS FEW012 OVC027 22/21 A2976 RMK AO2 LTG DSNT E AND S RAE49 SLP082 P0006 60021 T02220211 10272 20222 53001
KLGA - Nyc/La Guardia, New York, USA
Distance from station: ESE 12mi, 19km
Updated: 09/18/2018 2:10pm
Nearby thunderstorm, Light rain, Overcast
Nearby thunderstorm, Light rain, Overcast
 Wind from N
Wind: N 13 mph , 20 km/h
Temperature: 73°F , 23°C
Dew Point: 70°F , 21°C
Humidity: 89%
Barometer: 29.73 inHg , 1006.8 hPa
Summary: Nearby thunderstorm, Light rain
Clouds: Overcast
Visibility: 10 miles , 16 km
Cloud details: Partly cloudy 1300 ft
Mostly cloudy 3800 ft
Overcast 7000 ft
2018/09/18 18:10 KLGA 181810Z 35011KT 10SM VCTS -RA SCT013 BKN038 OVC070 23/21 A2973 RMK AO2 LTG DSNT S-W TSE00 P0000 T02330211 $
 
KEWR - Newark, New Jersey, USA
Distance from station: SSW 12mi, 20km
Updated: 09/18/2018 1:51pm
Thunderstorm rain, Mist, Overcast
Thunderstorm rain, Mist, Overcast
 Wind from WSW
Wind: WSW 8 mph , 13 km/h
Temperature: 75°F , 24°C
Dew Point: 73°F , 23°C
Humidity: 94%
Barometer: 29.73 inHg , 1006.8 hPa
Summary: Thunderstorm rain, Mist
Clouds: Overcast
Visibility: 5 miles , 8 km
Cloud details: Few Clouds 700 ft
Partly cloudy 2500 ft
Mostly cloudy 6000 ft
Overcast 13000 ft
2018/09/18 17:51 KEWR 181751Z 24007KT 5SM TSRA BR FEW007 SCT025CB BKN060 OVC130 24/23 A2973 RMK AO2 LTG DSNT SE AND S RAE16B41 TSE22B45 SLP067 OCNL LTGICCG OHD TS OHD MOV E P0002 60025 T02440233 10272 20239 56007
KMMU - Morristown Muni, New Jersey, USA
Distance from station: WSW 18mi, 29km
Updated: 09/18/2018 1:45pm
Mist, Overcast
Mist, Overcast
 Wind from N
Wind: N 3 mph , 6 km/h
Temperature: 73°F , 23°C
Dew Point: 73°F , 23°C
Humidity: 100%
Barometer: 29.76 inHg , 1007.8 hPa
Summary: Mist
Clouds: Overcast
Visibility: 7 miles , 11 km
Cloud details: Mostly cloudy 1600 ft
Overcast 3000 ft
2018/09/18 17:45 KMMU 181745Z 36003KT 7SM BR BKN016 OVC030 23/23 A2976
 
KJFK - Nyc/Jfk Arpt, New York, USA
Distance from station: SE 23mi, 36km
Updated: 09/18/2018 1:51pm
Rain, Overcast
Rain, Overcast
 Wind from W
Wind: W 10 mph , 17 km/h
Temperature: 75°F , 24°C
Dew Point: 75°F , 24°C
Humidity: 100%
Barometer: 29.73 inHg , 1006.8 hPa
Summary: Rain
Clouds: Overcast
Visibility: 7 miles , 11 km
Cloud details: Few Clouds 800 ft
Partly cloudy 3000 ft
Mostly cloudy 7500 ft
Overcast 14000 ft
2018/09/18 17:51 KJFK 181751Z 27009KT 7SM RA FEW008 SCT030 BKN075 OVC140 24/24 A2973 RMK AO2 LTG DSNT E AND S AND W TSE48 SLP068 OCNL LTGICCG DSNT SE CB DSNT N AND DSNT SE MOV NE P0009 60023 T02390239 10272 20239 56012
KHPN - White Plains, New York, USA
Distance from station: NE 25mi, 40km
Updated: 09/18/2018 1:56pm
Nearby thunderstorm, Heavy rain, Mist, Overcast
Nearby thunderstorm, Heavy rain, Mist, Overcast
 Wind from N
Wind: N 3 mph , 6 km/h
Temperature: 70°F , 21°C
Dew Point: 70°F , 21°C
Humidity: 100%
Barometer: 29.75 inHg , 1007.5 hPa
Summary: Nearby thunderstorm, Heavy rain, Mist
Clouds: Overcast
Visibility: 1 mile , 2 km
Cloud details: Mostly cloudy 500 ft
Mostly cloudy 3000 ft
Overcast 5500 ft
2018/09/18 17:56 KHPN 181756Z 01003KT 1SM R16/5000VP6000FT VCTS +RA BR BKN005 BKN030 OVC055 21/21 A2975 RMK AO2 LTG DSNT SE AND SW SLP067 P0020 60027 T02110206 10267 20211 55003
 
KSMQ - Somerville, New Jersey, USA
Distance from station: WSW 34mi, 55km
Updated: 09/18/2018 1:53pm
Light rain, Overcast
Light rain, Overcast
 Wind from N
Wind: N 8 mph , 13 km/h
Temperature: 73°F , 23°C
Dew Point: 72°F , 22°C
Humidity: 94%
Barometer: 29.73 inHg , 1006.8 hPa
Summary: Light rain
Clouds: Overcast
Visibility: 10 miles , 16 km
Cloud details: Partly cloudy 3000 ft
Overcast 4500 ft
2018/09/18 17:53 KSMQ 181753Z AUTO 35007KT 10SM -RA SCT030 OVC045 23/22 A2973 RMK AO2 LTG DSNT E TSB25E40 SLP067 P0024 60033 T02330217 10272 20233 55006
K12N - Andover, New Jersey, USA
Distance from station: WNW 36mi, 57km
Updated: 09/18/2018 1:54pm

 Wind from varies
Wind: varies 7 mph , 11 km/h
Temperature: 70°F , 21°C
Dew Point: 66°F , 19°C
Humidity: 88%
Barometer: 29.79 inHg , 1008.8 hPa
2018/09/18 17:54 K12N 181754Z AUTO VRB06KT 21/19 A2979 RMK AO1 SLP079 P0002 60021 T02110194 10239 20211 52002
 
KFRG - Farmingdale, New York, USA
Distance from station: ESE 36mi, 58km
Updated: 09/18/2018 1:53pm
Nearby thunderstorm, Overcast
Nearby thunderstorm, Overcast
 Wind from WSW
Wind: WSW 7 mph , 11 km/h
Temperature: 75°F , 24°C
Dew Point: 75°F , 24°C
Humidity: 100%
Barometer: 29.73 inHg , 1006.8 hPa
Summary: Nearby Thunderstorm
Clouds: Overcast
Visibility: 10 miles , 16 km
Cloud details: Mostly cloudy 700 ft
Overcast 1300 ft
2018/09/18 17:53 KFRG 181753Z 24006KT 10SM VCTS BKN007 OVC013 24/24 A2973 RMK AO2 LTG DSNT NW-E RAE43 TSB11E26 SLP065 P0006 60008 T02440239 10267 20239 58013
KFWN - Sussex, New Jersey, USA
Distance from station: NW 37mi, 60km
Updated: 09/18/2018 2:13pm
Overcast
Overcast
 Wind from NNE
Wind: NNE 7 mph , 11 km/h
Temperature: 72°F , 22°C
Dew Point: 70°F , 21°C
Humidity: 94%
Barometer: 29.78 inHg , 1008.5 hPa
Clouds: Overcast
Visibility: 10 miles , 16 km
Cloud details: Mostly cloudy 900 ft
Overcast 2700 ft
2018/09/18 18:13 KFWN 181813Z AUTO 03006KT 10SM BKN009 OVC027 22/21 A2978 RMK AO2 T02170206
 
KSWF - Newburgh/Stewart, New York, USA
Distance from station: 0 45mi, 72km
Updated: 09/18/2018 1:45pm
Mist, Mostly cloudy
Mist, Mostly cloudy
 Wind from NNE
Wind: NNE 7 mph , 11 km/h
Temperature: 72°F , 22°C
Dew Point: 70°F , 21°C
Humidity: 94%
Barometer: 29.79 inHg , 1008.8 hPa
Summary: Mist
Clouds: Mostly cloudy
Visibility: 6 miles , 10 km
Cloud details: Partly cloudy 800 ft
Mostly cloudy 3000 ft
2018/09/18 17:45 KSWF 181745Z 03006KT 6SM BR SCT008 BKN030 22/21 A2979
KMGJ - Montgomery, New York, USA
Distance from station: NNW 47mi, 75km
Updated: 09/18/2018 1:54pm
Light rain, Overcast
Light rain, Overcast
 Wind from NNE
Wind: NNE 6 mph , 9 km/h
Temperature: 73°F , 23°C
Dew Point: 68°F , 20°C
Humidity: 83%
Barometer: 29.77 inHg , 1008.1 hPa
Summary: Light rain
Clouds: Overcast
Visibility: 10 miles , 16 km
Cloud details: Few Clouds 1000 ft
Overcast 4400 ft
2018/09/18 17:54 KMGJ 181754Z AUTO 02005KT 10SM -RA FEW010 OVC044 23/20 A2977 RMK AO2 RAB51 SLP078 P0000 60023 T02280200 10256 20211 50000
 
KBLM - Belmar/Farmdale, New Jersey, USA
Distance from station: S 47mi, 76km
Updated: 09/18/2018 2:03pm
Heavy thunderstorm, Rain, Mist, Overcast
Heavy thunderstorm, Rain, Mist, Overcast
 Wind from W
Wind: W 10 mph , 17 km/h
Temperature: 77°F , 25°C
Dew Point: 75°F , 24°C
Humidity: 94%
Barometer: 29.76 inHg , 1007.8 hPa
Summary: Heavy thunderstorm, Rain, Mist
Clouds: Overcast
Visibility: 1 1/2 miles , 2.4 km
Cloud details: Mostly cloudy 3400 ft
Mostly cloudy 4300 ft
Overcast 6500 ft
2018/09/18 18:03 KBLM 181803Z AUTO 27009KT 1 1/2SM +TSRA BR BKN034 BKN043 OVC065 25/24 A2976 RMK AO2 VIS 3/4V5 LTG DSNT ALQDS P0021
KDXR - Danbury, Connecticut, USA
Distance from station: NE 47mi, 76km
Updated: 09/18/2018 1:53pm
Light rain, Mist, Overcast
Light rain, Mist, Overcast
 Wind from NNE
Wind: NNE 7 mph , 11 km/h
Temperature: 72°F , 22°C
Dew Point: 70°F , 21°C
Humidity: 94%
Barometer: 29.77 inHg , 1008.1 hPa
Summary: Light rain, Mist
Clouds: Overcast
Visibility: 4 miles , 6 km
Cloud details: Few Clouds 1000 ft
Overcast 4600 ft
2018/09/18 17:53 KDXR 181753Z 02006KT 4SM -RA BR FEW010 OVC046 22/21 A2977 RMK AO2 LTG DSNT SW SLP077 P0010 60014 T02170206 10250 20211 50005
 
KISP - Islip, New York, USA
Distance from station: E 52mi, 83km
Updated: 09/18/2018 2:00pm
Light thunderstorm, Rain, Mist, Overcast
Light thunderstorm, Rain, Mist, Overcast
 Wind from SSW
Wind: SSW 7 mph , 11 km/h
Temperature: 75°F , 24°C
Dew Point: 75°F , 24°C
Humidity: 100%
Barometer: 29.73 inHg , 1006.8 hPa
Summary: Light thunderstorm, Rain, Mist
Clouds: Overcast
Visibility: 2 miles , 3 km
Cloud details: Mostly cloudy 600 ft
Mostly cloudy 2500 ft
Overcast 4400 ft
2018/09/18 18:00 KISP 181800Z 20006KT 2SM R06/2800VP6000FT -TSRA BR BKN006 BKN025CB OVC044 24/24 A2973 RMK AO2 LTG DSNT N AND NE OCNL LTGIC ALQDS CB SW-NE MOV E P0006 T02390239
KBDR - Bridgeport, Connecticut, USA
Distance from station: ENE 54mi, 87km
Updated: 09/18/2018 2:05pm
Heavy thunderstorm, Rain, Mist, Overcast
Heavy thunderstorm, Rain, Mist, Overcast
 Wind from SSE
Wind: SSE 9 mph , 15 km/h
Temperature: 73°F , 23°C
Dew Point: 72°F , 22°C
Humidity: 94%
Barometer: 29.75 inHg , 1007.5 hPa
Summary: Heavy thunderstorm, Rain, Mist
Clouds: Overcast
Visibility: 1 mile , 2 km
Cloud details: Few Clouds 1000 ft
Mostly cloudy 1500 ft
Overcast 3800 ft
2018/09/18 18:05 KBDR 181805Z 16008KT 1SM +TSRA BR FEW010 BKN015 OVC038 23/22 A2975 RMK AO2 LTG DSNT E-S TSB1759 P0050 T02280222
 
KTTN - Trenton, New Jersey, USA
Distance from station: SW 55mi, 88km
Updated: 09/18/2018 2:12pm
Light thunderstorm, Rain, Mist, Overcast
Light thunderstorm, Rain, Mist, Overcast
 Wind from NW
Wind: NW 5 mph , 7 km/h
Temperature: 75°F , 24°C
Dew Point: 73°F , 23°C
Humidity: 94%
Barometer: 29.74 inHg , 1007.1 hPa
Summary: Light thunderstorm, Rain, Mist
Clouds: Overcast
Visibility: 2 miles , 3 km
Cloud details: Few Clouds 400 ft
Mostly cloudy 900 ft
Overcast 1600 ft
2018/09/18 18:12 KTTN 181812Z 32004KT 2SM -TSRA BR FEW004 BKN009 OVC016 24/23 A2974 RMK AO2 LTG DSNT E AND SE RAB1756 TSB1756 TS W MVNG E P0008 T02440228
KPOU - Poughkeepsie, New York, USA
Distance from station: N 55mi, 89km
Updated: 09/18/2018 1:53pm
Overcast
Overcast
 Wind from N
Wind: N 8 mph , 13 km/h
Temperature: 73°F , 23°C
Dew Point: 66°F , 19°C
Humidity: 78%
Barometer: 29.75 inHg , 1007.5 hPa
Clouds: Overcast
Visibility: 10 miles , 16 km
Cloud details: Few Clouds 1300 ft
Mostly cloudy 5000 ft
Overcast 6000 ft
2018/09/18 17:53 KPOU 181753Z 01007KT 10SM FEW013 BKN050 OVC060 23/19 A2975 RMK AO2 SLP070 60014 T02280194 10239 20206 58005
 
KNEL - Lakehurst Nas, New Jersey, USA
Distance from station: SSW 59mi, 95km
Updated: 09/18/2018 2:00pm
Heavy rain, Overcast
Heavy rain, Overcast
 Wind from WNW
Wind: WNW 10 mph , 17 km/h
Temperature: 79°F , 26°C
Dew Point: 72°F , 22°C
Humidity: 79%
Barometer: 29.74 inHg , 1007.1 hPa
Summary: Heavy rain
Clouds: Overcast
Visibility: 1 1/4 miles , 2 km
Cloud details: Few Clouds 900 ft
Mostly cloudy 3800 ft
Overcast 5000 ft
2018/09/18 18:00 KNEL 181800Z 30009KT 1 1/4SM +RA FEW009 BKN038 OVC050 26/22 A2974 RMK AO2 RAB1737 PNO $
KWRI - Wrightst/Mcguire, New Jersey, USA
Distance from station: SSW 63mi, 102km
Updated: 09/18/2018 2:07pm
Light rain, Nearby thunderstorm, Partly cloudy
Light rain, Nearby thunderstorm, Partly cloudy
 Wind from WNW
Wind: WNW 6 mph , 9 km/h
Temperature: 75°F , 24°C
Dew Point: 73°F , 23°C
Humidity: 94%
Barometer: 29.71 inHg , 1006.1 hPa
Summary: Light rain, Nearby thunderstorm
Clouds: Partly cloudy
Visibility: 9 miles , 14 km
Cloud details: Partly cloudy 2100 ft
2018/09/18 18:07 KWRI 181807Z 30005KT 9SM -RA VCTS SCT021 24/23 A2971 RMK AO2A TWR VIS 1 TSE07 SLP059 $
 
KHWV - Shirley, New York, USA
Distance from station: E 64mi, 103km
Updated: 09/18/2018 1:56pm
Light thunderstorm, Rain, Mist, Overcast
Light thunderstorm, Rain, Mist, Overcast
 Wind from SW
Wind: SW 9 mph , 15 km/h
Temperature: 75°F , 24°C
Dew Point: 73°F , 23°C
Humidity: 94%
Barometer: 29.74 inHg , 1007.1 hPa
Summary: Light thunderstorm, Rain, Mist
Clouds: Overcast
Visibility: 5 miles , 8 km
Cloud details: Overcast 400 ft
2018/09/18 17:56 KHWV 181756Z AUTO 22008KT 5SM -TSRA BR OVC004 24/23 A2974 RMK AO2 LTG DSNT ALQDS RAB53 TSB55 SLP070 P0000 60000 T02440228 10256 20233 56008
KMJX - Toms River, New Jersey, USA
Distance from station: S 64mi, 104km
Updated: 09/18/2018 2:06pm
Nearby thunderstorm, Mostly cloudy
Nearby thunderstorm, Mostly cloudy
 Wind from NW
Wind: NW 9 mph , 15 km/h
Temperature: 79°F , 26°C
Dew Point: 77°F , 25°C
Humidity: 94%
Barometer: 29.74 inHg , 1007.1 hPa
Summary: Nearby Thunderstorm
Clouds: Mostly cloudy
Visibility: 10 miles , 16 km
Cloud details: Mostly cloudy 3900 ft
2018/09/18 18:06 KMJX 181806Z AUTO 32008KT 10SM VCTS BKN039 26/25 A2974 RMK AO2 LTG DSNT ALQDS TSB00
 
KDYL - Doylestown, Pennsylvania, USA
Distance from station: SW 65mi, 104km
Updated: 09/18/2018 1:54pm
Overcast
Overcast
 Wind from N
Wind: N 10 mph , 17 km/h
Temperature: 73°F , 23°C
Dew Point: 72°F , 22°C
Humidity: 94%
Barometer: 29.76 inHg , 1007.8 hPa
Clouds: Overcast
Visibility: 10 miles , 16 km
Cloud details: Overcast 1300 ft
2018/09/18 17:54 KDYL 181754Z AUTO 36009KT 10SM OVC013 23/22 A2976 RMK AO2 LTG DSNT SE RAE15 SLP074 P0001 60017 T02330217 10244 20233 55002
KOXC - Oxford/Waterbury, Connecticut, USA
Distance from station: NE 65mi, 105km
Updated: 09/18/2018 1:51pm
Mist, Overcast
Mist, Overcast
 Wind from NNE
Wind: NNE 8 mph , 13 km/h
Temperature: 72°F , 22°C
Dew Point: 70°F , 21°C
Humidity: 94%
Barometer: 29.77 inHg , 1008.1 hPa
Summary: Mist
Clouds: Overcast
Visibility: 5 miles , 8 km
Cloud details: Partly cloudy 1000 ft
Mostly cloudy 1400 ft
Overcast 5000 ft
2018/09/18 17:51 KOXC 181751Z 03007KT 5SM BR SCT010 BKN014 OVC050 22/21 A2977 RMK AO2 LTG DSNT SE SLP089 P0001 60016 T02220211 10244 20217 53002
 
KMSV - Monticello, New York, USA
Distance from station: NNW 69mi, 111km
Updated: 09/18/2018 1:56pm
Overcast
Overcast
 Wind from NNW
Wind: NNW 10 mph , 17 km/h, Gust: 20 mph , 31 km/h
Temperature: 75°F , 24°C
Dew Point: 64°F , 18°C
Humidity: 69%
Barometer: 29.83 inHg , 1010.2 hPa
Clouds: Overcast
Visibility: 10 miles , 16 km
Cloud details: Partly cloudy 2700 ft
Mostly cloudy 3300 ft
Overcast 4000 ft
2018/09/18 17:56 KMSV 181756Z AUTO 33009G17KT 10SM SCT027 BKN033 OVC040 24/18 A2983 RMK AO2 SLP091 60018 T02390183 10244 20194 58003
KHVN - New Haven/Tweed, Connecticut, USA
Distance from station: ENE 70mi, 112km
Updated: 09/18/2018 2:10pm
Nearby thunderstorm, Light rain, Mist, Overcast
Nearby thunderstorm, Light rain, Mist, Overcast
 Wind from ENE
Wind: ENE 7 mph , 11 km/h
Temperature: 73°F , 23°C
Dew Point: 72°F , 22°C
Humidity: 94%
Barometer: 29.74 inHg , 1007.1 hPa
Summary: Nearby thunderstorm, Light rain, Mist
Clouds: Overcast
Visibility: 3 miles , 5 km
Cloud details: Mostly cloudy 900 ft
Overcast 4100 ft
2018/09/18 18:10 KHVN 181810Z 07006KT 3SM VCTS -RA BR BKN009 OVC041 23/22 A2974 RMK AO2 LTG DSNT ALQDS TSE06E10 P0010 T02330222
 
KMPO - Mt. Pocono, Pennsylvania, USA
Distance from station: WNW 70mi, 113km
Updated: 09/18/2018 2:07pm
Overcast
Overcast
 Wind from N
Wind: N 13 mph , 20 km/h
Temperature: 72°F , 22°C
Dew Point: 64°F , 18°C
Humidity: 78%
Barometer: 29.83 inHg , 1010.2 hPa
Clouds: Overcast
Visibility: 10 miles , 16 km
Cloud details: Partly cloudy 2500 ft
Overcast 3200 ft
2018/09/18 18:07 KMPO 181807Z AUTO 35011KT 10SM SCT025 OVC032 22/18 A2983 RMK AO2 T02220183
KPNE - Philadelphia/Ne, Pennsylvania, USA
Distance from station: SW 72mi, 116km
Updated: 09/18/2018 2:11pm
Heavy rain, Mist, Overcast
Heavy rain, Mist, Overcast
 Wind from WNW
Wind: WNW 8 mph , 13 km/h
Temperature: 79°F , 26°C
Dew Point: 73°F , 23°C
Humidity: 84%
Barometer: 29.76 inHg , 1007.8 hPa
Summary: Heavy rain, Mist
Clouds: Overcast
Visibility: 3/4 mile , 1.2 km
Cloud details: Few Clouds 800 ft
Mostly cloudy 2500 ft
Overcast 4400 ft
2018/09/18 18:11 KPNE 181811Z 30007KT 3/4SM +RA BR FEW008 BKN025 OVC044 26/23 A2976 RMK AO2 LTG DSNT ALQDS RAB1758 TSE1759 P0021 T02560233 RVRNO
 
KABE - Allentown, Pennsylvania, USA
Distance from station: W 73mi, 117km
Updated: 09/18/2018 1:51pm
Mostly cloudy
Mostly cloudy
 Wind from N
Wind: N 8 mph , 13 km/h
Temperature: 79°F , 26°C
Dew Point: 68°F , 20°C
Humidity: 70%
Barometer: 29.78 inHg , 1008.5 hPa
Clouds: Mostly cloudy
Visibility: 10 miles , 16 km
Cloud details: Mostly cloudy 6000 ft
2018/09/18 17:51 KABE 181751Z 01007KT 10SM BKN060 26/20 A2978 RMK AO2 RAB1654E06 SLP080 P0000 60058 T02560200 10261 20217 56001
KUKT - Quakertown Arp, Pennsylvania, USA
Distance from station: WSW 74mi, 119km
Updated: 09/18/2018 1:55pm
Overcast
Overcast
 Wind from N
Wind: N 8 mph , 13 km/h
Temperature: 75°F , 24°C
Dew Point: 70°F , 21°C
Humidity: 83%
Barometer: 29.78 inHg , 1008.5 hPa
Clouds: Overcast
Visibility: 10 miles , 16 km
Cloud details: Partly cloudy 1500 ft
Partly cloudy 3600 ft
Overcast 4600 ft
2018/09/18 17:55 KUKT 181755Z AUTO 35007KT 10SM SCT015 SCT036 OVC046 24/21 A2978 RMK A01
 
KVAY - Mount Holly, New Jersey, USA
Distance from station: SSW 75mi, 120km
Updated: 09/18/2018 1:54pm
Overcast
Overcast
 Wind from varies
Wind: varies 3 mph , 6 km/h
Temperature: 77°F , 25°C
Dew Point: 75°F , 24°C
Humidity: 94%
Barometer: 29.73 inHg , 1006.8 hPa
Clouds: Overcast
Visibility: 10 miles , 16 km
Cloud details: Partly cloudy 3400 ft
Mostly cloudy 4400 ft
Overcast 5500 ft
2018/09/18 17:54 KVAY 181754Z AUTO VRB03KT 10SM SCT034 BKN044 OVC055 25/24 A2973 RMK AO2 LTG DSNT ALQDS RAB1657E45 TSE08 SLP066 P0019 60020 T02500244 10294 20244 56009
KXLL - Allentown Queen, Pennsylvania, USA
Distance from station: WSW 76mi, 122km
Updated: 09/18/2018 1:55pm
Clear
Clear
 Wind from N
Wind: N 5 mph , 7 km/h
Barometer: 29.79 inHg , 1008.8 hPa
Clouds: Clear
Visibility: 10 miles , 16 km
2018/09/18 17:55 KXLL 181755Z AUTO 35004KT 10SM CLR A2979 RMK AO2 LTG DSNT E
 
KFOK - Westhampton Beac, New York, USA
Distance from station: E 77mi, 124km
Updated: 09/18/2018 1:53pm
Mist, Overcast
Mist, Overcast
 Wind from SW
Wind: SW 15 mph , 24 km/h, Gust: 23 mph , 37 km/h
Temperature: 75°F , 24°C
Dew Point: 72°F , 22°C
Humidity: 89%
Barometer: 29.75 inHg , 1007.5 hPa
Summary: Mist
Clouds: Overcast
Visibility: 2 1/2 miles , 4 km
Cloud details: Overcast 400 ft
2018/09/18 17:53 KFOK 181753Z 23013G20KT 2 1/2SM BR OVC004 24/22 A2975 RMK AO2 SFC VIS 5 LTG DSNT W-NE SLP075 60000 T02390217 10256 20233 56010
KLOM - Philly Wings F, Pennsylvania, USA
Distance from station: SW 79mi, 128km
Updated: 09/18/2018 1:55pm
Mostly cloudy
Mostly cloudy
 Wind from calm
Wind: Calm
Temperature: 73°F , 23°C
Dew Point: 73°F , 23°C
Humidity: 100%
Barometer: 29.77 inHg , 1008.1 hPa
Clouds: Mostly cloudy
Visibility: 10 miles , 16 km
Cloud details: Partly cloudy 1000 ft
Mostly cloudy 2600 ft
Mostly cloudy 3200 ft
2018/09/18 17:55 KLOM 181755Z AUTO 00000KT 10SM SCT010 BKN026 BKN032 23/23 A2977 RMK AO1
 
KMMK - Meriden, Connecticut, USA
Distance from station: NE 80mi, 128km
Updated: 09/18/2018 1:53pm
Light rain, Overcast
Light rain, Overcast
 Wind from NNE
Wind: NNE 8 mph , 13 km/h
Temperature: 73°F , 23°C
Dew Point: 70°F , 21°C
Humidity: 89%
Barometer: 29.75 inHg , 1007.5 hPa
Summary: Light rain
Clouds: Overcast
Visibility: 10 miles , 16 km
Cloud details: Mostly cloudy 1200 ft
Overcast 8500 ft
2018/09/18 17:53 KMMK 181753Z AUTO 02007KT 10SM -RA BKN012 OVC085 23/21 A2975 RMK AO2 LTG DSNT E-S RAE37B53 TSE1654B1655E16 SLP071 P0002 60065 T02280206 10256 20222 53008
KPTW - Pottstown, Pennsylvania, USA
Distance from station: WSW 88mi, 141km
Updated: 09/18/2018 2:08pm
Mostly cloudy
Mostly cloudy
 Wind from N
Wind: N 10 mph , 17 km/h
Temperature: 75°F , 24°C
Dew Point: 70°F , 21°C
Humidity: 83%
Barometer: 29.79 inHg , 1008.8 hPa
Clouds: Mostly cloudy
Visibility: 10 miles , 16 km
Cloud details: Mostly cloudy 2200 ft
Mostly cloudy 5500 ft
2018/09/18 18:08 KPTW 181808Z AUTO 01009KT 10SM BKN022 BKN055 24/21 A2979 RMK AO2 LTG DSNT E T02390206
 
KSNC - Chester, Connecticut, USA
Distance from station: ENE 90mi, 146km
Updated: 09/18/2018 2:15pm
Light rain, Overcast
Light rain, Overcast
 Wind from NNW
Wind: NNW 6 mph , 9 km/h, Gust: 12 mph , 19 km/h
Temperature: 72°F , 22°C
Dew Point: 70°F , 21°C
Humidity: 94%
Barometer: 29.75 inHg , 1007.5 hPa
Summary: Light rain
Clouds: Overcast
Visibility: 2 miles , 3 km
Cloud details: Partly cloudy 100 ft
Mostly cloudy 600 ft
Overcast 5500 ft
2018/09/18 18:15 KSNC 181815Z AUTO 33005G10KT 2SM -RA SCT001 BKN006 OVC055 22/21 A2975 RMK AO2
KPHL - Philadelphia, Pennsylvania, USA
Distance from station: SW 91mi, 146km
Updated: 09/18/2018 2:08pm
Light thunderstorm, Rain, Overcast
Light thunderstorm, Rain, Overcast
 Wind from WNW
Wind: WNW 10 mph , 17 km/h
Temperature: 75°F , 24°C
Dew Point: 73°F , 23°C
Humidity: 94%
Barometer: 29.75 inHg , 1007.5 hPa
Summary: Light thunderstorm, Rain
Clouds: Overcast
Visibility: 5 miles , 8 km
Cloud details: Partly cloudy 2300 ft
Mostly cloudy 3700 ft
Overcast 9500 ft
2018/09/18 18:08 KPHL 181808Z 30009KT 5SM -TSRA SCT023 BKN037CB OVC095 24/23 A2975 RMK AO2 LTG DSNT NE TSB00 OCNL LTGIC VC NE TS VC NE MOV E P0000 T02440233 $
 
KAVP - Avoca/Wilkes B., Pennsylvania, USA
Distance from station: WNW 91mi, 147km
Updated: 09/18/2018 1:54pm
Overcast
Overcast
 Wind from N
Wind: N 9 mph , 15 km/h
Temperature: 77°F , 25°C
Dew Point: 66°F , 19°C
Humidity: 69%
Barometer: 29.81 inHg , 1009.5 hPa
Clouds: Overcast
Visibility: 10 miles , 16 km
Cloud details: Few Clouds 3000 ft
Partly cloudy 4300 ft
Overcast 5000 ft
2018/09/18 17:54 KAVP 181754Z 35008KT 10SM FEW030 SCT043 OVC050 25/19 A2981 RMK AO2 SLP083 60024 T02500189 10261 20194 58005
KHFD - Hartford/Brainar, Connecticut, USA
Distance from station: NE 96mi, 155km
Updated: 09/18/2018 1:53pm
Overcast
Overcast
 Wind from N
Wind: N 7 mph , 11 km/h
Temperature: 72°F , 22°C
Dew Point: 70°F , 21°C
Humidity: 94%
Barometer: 29.74 inHg , 1007.1 hPa
Clouds: Overcast
Visibility: 10 miles , 16 km
Cloud details: Overcast 1000 ft
2018/09/18 17:53 KHFD 181753Z 01006KT 10SM OVC010 22/21 A2974 RMK AO2 LTG DSNT SE AND S RAE01 SLP071 P0000 60042 T02220206 10256 20211 51009
 
KHTO - East Hampton, New York, USA
Distance from station: E 96mi, 155km
Updated: 09/18/2018 1:55pm
Nearby thunderstorm, Mist, Overcast
Nearby thunderstorm, Mist, Overcast
 Wind from SW
Wind: SW 12 mph , 19 km/h, Gust: 22 mph , 35 km/h
Temperature: 75°F , 24°C
Dew Point: 73°F , 23°C
Humidity: 94%
Barometer: 29.74 inHg , 1007.1 hPa
Summary: Nearby thunderstorm, Mist
Clouds: Overcast
Visibility: 5 miles , 8 km
Cloud details: Overcast 400 ft
2018/09/18 17:55 KHTO 181755Z AUTO 23010G19KT 5SM VCTS BR OVC004 24/23 A2974 RMK AO2 LTG DSNT NE 60001 T02390225 10245 20225
KACY - Atlantic City, New Jersey, USA
Distance from station: SSW 99mi, 160km
Updated: 09/18/2018 1:54pm
Overcast
Overcast
 Wind from SSW
Wind: SSW 13 mph , 20 km/h
Temperature: 84°F , 29°C
Heat Index: 94°F , 34°C
Dew Point: 77°F , 25°C
Humidity: 79%
Barometer: 29.74 inHg , 1007.1 hPa
Clouds: Overcast
Visibility: 10 miles , 16 km
Cloud details: Partly cloudy 2900 ft
Mostly cloudy 3700 ft
Overcast 7000 ft
2018/09/18 17:54 KACY 181754Z 20011KT 10SM SCT029 BKN037 OVC070 29/25 A2974 RMK AO2 LTG DSNT N SLP068 T02940250 10306 20261 56016